createdAt,value
2019-04-03T00:00:43.992Z,90.70
2019-04-03T00:03:13.446Z,91.00
2019-04-03T00:05:43.106Z,91.10
2019-04-03T00:08:12.614Z,91.10
2019-04-03T00:10:42.604Z,91.10
2019-04-03T00:13:12.088Z,91.20
2019-04-03T00:15:42.798Z,91.40
2019-04-03T00:18:12.719Z,91.50
2019-04-03T00:20:42.226Z,91.50
2019-04-03T00:23:11.838Z,91.90
2019-04-03T00:25:41.560Z,91.70
2019-04-03T00:28:11.039Z,92.00
2019-04-03T00:30:40.537Z,92.00
2019-04-03T00:33:10.059Z,92.10
2019-04-03T00:35:39.519Z,92.10
2019-04-03T00:38:08.961Z,92.40
2019-04-03T00:40:38.600Z,92.70
2019-04-03T00:43:08.220Z,93.20
2019-04-03T00:45:37.783Z,93.00
2019-04-03T00:48:07.277Z,93.20
2019-04-03T00:50:36.692Z,93.20
2019-04-03T00:53:06.234Z,93.70
2019-04-03T00:55:35.819Z,93.50
2019-04-03T00:58:40.381Z,94.00
2019-04-03T01:01:11.785Z,93.90
2019-04-03T01:03:41.497Z,94.50
2019-04-03T01:06:11.532Z,94.50
2019-04-03T01:08:41.189Z,94.30
2019-04-03T01:11:10.779Z,94.30
2019-04-03T01:13:40.471Z,95.00
2019-04-03T01:16:10.205Z,94.40
2019-04-03T01:18:39.672Z,94.80
2019-04-03T01:21:09.093Z,95.10
2019-04-03T01:23:38.510Z,95.20
2019-04-03T01:26:10.061Z,95.20
2019-04-03T01:28:41.348Z,94.80
2019-04-03T01:31:10.367Z,95.10
2019-04-03T01:33:39.921Z,95.10
2019-04-03T01:36:09.631Z,95.30
2019-04-03T01:38:39.152Z,95.50
2019-04-03T01:41:08.582Z,95.70
2019-04-03T01:43:38.558Z,95.90
2019-04-03T01:46:08.242Z,96.00
2019-04-03T01:48:37.700Z,96.20
2019-04-03T01:51:07.220Z,96.70
2019-04-03T01:53:36.802Z,96.70
2019-04-03T01:56:06.389Z,96.70
2019-04-03T01:58:36.517Z,97.10
2019-04-03T02:01:08.051Z,97.60
2019-04-03T02:03:37.762Z,97.00
2019-04-03T02:06:07.220Z,97.80
2019-04-03T02:08:36.675Z,97.70
2019-04-03T02:11:06.650Z,97.70
2019-04-03T02:13:36.130Z,97.90
2019-04-03T02:16:05.575Z,98.00
2019-04-03T02:18:35.140Z,98.00
2019-04-03T02:21:04.815Z,98.20
2019-04-03T02:23:34.219Z,98.20
2019-04-03T02:26:04.586Z,98.20
2019-04-03T02:28:34.961Z,98.60
2019-04-03T02:31:04.735Z,99.10
2019-04-03T02:33:34.163Z,98.20
2019-04-03T02:36:03.672Z,98.80
2019-04-03T02:38:33.177Z,99.30
2019-04-03T02:41:04.001Z,99.50
2019-04-03T02:43:33.810Z,99.60
2019-04-03T02:46:03.534Z,99.90
2019-04-03T02:48:33.014Z,99.90
2019-04-03T02:51:02.934Z,99.90
2019-04-03T02:53:32.392Z,99.90
2019-04-03T02:56:01.959Z,99.90
2019-04-03T02:58:31.454Z,99.90
2019-04-03T03:01:05.557Z,99.90
2019-04-03T03:03:32.451Z,99.90
2019-04-03T03:06:01.948Z,99.90
2019-04-03T03:08:31.888Z,99.90
2019-04-03T03:11:03.363Z,99.90
2019-04-03T03:13:35.175Z,99.90
2019-04-03T03:16:05.291Z,99.90
2019-04-03T03:18:35.572Z,99.90
2019-04-03T03:21:05.725Z,99.90
2019-04-03T03:23:35.889Z,99.90
2019-04-03T03:26:06.333Z,99.90
2019-04-03T03:28:36.115Z,99.90
2019-04-03T03:31:07.501Z,99.90
2019-04-03T03:33:40.075Z,99.90
2019-04-03T03:36:09.531Z,99.90
2019-04-03T03:38:40.774Z,99.90
2019-04-03T03:41:10.833Z,99.90
2019-04-03T03:43:40.807Z,99.90
2019-04-03T03:46:11.271Z,99.90
2019-04-03T03:48:43.974Z,99.90
2019-04-03T03:51:14.393Z,99.90
2019-04-03T03:53:45.949Z,99.90
2019-04-03T03:56:18.355Z,99.90
2019-04-03T03:58:48.988Z,99.90
2019-04-03T04:01:19.197Z,99.90
2019-04-03T04:03:48.929Z,99.90
2019-04-03T04:06:19.245Z,99.90
2019-04-03T04:08:49.003Z,99.90
2019-04-03T04:11:20.078Z,99.90
2019-04-03T04:13:50.042Z,99.90
2019-04-03T04:16:21.042Z,99.90
2019-04-03T04:18:51.001Z,99.90
2019-04-03T04:21:21.615Z,99.90
2019-04-03T04:23:51.161Z,99.90
2019-04-03T04:26:21.136Z,99.90
2019-04-03T04:28:50.614Z,99.90
2019-04-03T04:31:20.086Z,99.90
2019-04-03T04:33:49.605Z,99.90
2019-04-03T04:36:19.303Z,99.90
2019-04-03T04:38:48.782Z,99.90
2019-04-03T04:41:18.378Z,99.90
2019-04-03T04:43:47.848Z,99.90
2019-04-03T04:46:17.272Z,99.90
2019-04-03T04:48:46.776Z,99.90
2019-04-03T04:51:16.310Z,99.90
2019-04-03T04:53:45.760Z,99.90
2019-04-03T04:56:15.438Z,99.90
2019-04-03T04:58:44.964Z,99.90
2019-04-03T05:01:17.112Z,99.90
2019-04-03T05:03:45.734Z,99.90
2019-04-03T05:06:15.478Z,99.90
2019-04-03T05:08:45.206Z,99.90
2019-04-03T05:11:15.935Z,99.90
2019-04-03T05:13:46.878Z,99.90
2019-04-03T05:16:19.808Z,99.90
2019-04-03T05:18:48.345Z,99.90
2019-04-03T05:21:17.944Z,99.90
2019-04-03T05:23:47.541Z,99.90
2019-04-03T05:26:17.019Z,99.90
2019-04-03T05:28:54.594Z,99.90
2019-04-03T05:31:17.770Z,99.90
2019-04-03T05:33:47.320Z,99.90
2019-04-03T05:36:17.731Z,99.90
2019-04-03T05:38:47.999Z,99.90
2019-04-03T05:41:17.434Z,99.90
2019-04-03T05:43:47.011Z,99.90
2019-04-03T05:46:19.095Z,99.90
2019-04-03T05:48:48.597Z,99.90
2019-04-03T05:51:18.494Z,99.90
2019-04-03T05:53:48.009Z,99.90
2019-04-03T05:56:17.623Z,99.90
2019-04-03T05:58:55.686Z,99.90
2019-04-03T06:01:18.275Z,99.90
2019-04-03T06:03:47.771Z,99.90
2019-04-03T06:06:17.304Z,99.90
2019-04-03T06:08:46.813Z,99.90
2019-04-03T06:11:16.542Z,99.90
2019-04-03T06:13:48.033Z,99.90
2019-04-03T06:16:17.338Z,99.90
2019-04-03T06:18:47.615Z,99.90
2019-04-03T06:21:17.902Z,99.90
2019-04-03T06:23:47.572Z,99.90
2019-04-03T06:26:17.198Z,99.90
2019-04-03T06:28:47.730Z,99.90
2019-04-03T06:31:17.442Z,99.90
2019-04-03T06:33:46.889Z,99.90
2019-04-03T06:36:17.550Z,99.90
2019-04-03T06:38:47.966Z,99.90
2019-04-03T06:41:17.442Z,99.90
2019-04-03T06:43:49.445Z,99.90
2019-04-03T06:46:18.040Z,99.90
2019-04-03T06:48:47.710Z,99.90
2019-04-03T06:51:17.220Z,99.90
2019-04-03T06:53:46.730Z,99.90
2019-04-03T06:56:16.368Z,99.90
2019-04-03T06:58:45.973Z,99.90
2019-04-03T07:01:15.677Z,99.90
2019-04-03T07:03:45.168Z,99.90
2019-04-03T07:06:15.056Z,99.90
2019-04-03T07:08:44.809Z,99.90
2019-04-03T07:11:23.150Z,99.90
2019-04-03T07:13:45.837Z,99.90
2019-04-03T07:16:15.651Z,99.90
2019-04-03T07:18:45.106Z,99.90
2019-04-03T07:21:14.876Z,99.90
2019-04-03T07:23:44.403Z,99.90
2019-04-03T07:26:14.125Z,99.90
2019-04-03T07:28:43.593Z,99.90
2019-04-03T07:31:13.187Z,99.90
2019-04-03T07:33:42.965Z,99.90
2019-04-03T07:36:12.449Z,99.90
2019-04-03T07:38:41.869Z,99.90
2019-04-03T07:41:11.491Z,99.90
2019-04-03T07:43:41.083Z,99.90
2019-04-03T07:46:10.603Z,99.90
2019-04-03T07:48:40.101Z,99.90
2019-04-03T07:51:12.727Z,99.90
2019-04-03T07:53:41.129Z,99.90
2019-04-03T07:56:11.025Z,99.90
2019-04-03T07:58:40.671Z,99.90
2019-04-03T08:01:11.174Z,99.90
2019-04-03T08:03:40.785Z,99.90
2019-04-03T08:06:10.550Z,99.90
2019-04-03T08:08:40.102Z,99.90
2019-04-03T08:11:10.087Z,99.90
2019-04-03T08:13:39.812Z,99.90
2019-04-03T08:16:09.442Z,99.90
2019-04-03T08:18:38.928Z,99.90
2019-04-03T08:21:08.466Z,99.90
2019-04-03T08:23:38.214Z,99.90
2019-04-03T08:26:10.964Z,99.90
2019-04-03T08:28:39.228Z,99.90
2019-04-03T08:31:11.558Z,99.90
2019-04-03T08:33:40.372Z,99.90
2019-04-03T08:36:22.536Z,99.90
2019-04-03T08:38:44.015Z,99.90
2019-04-03T08:41:12.689Z,99.90
2019-04-03T08:43:42.286Z,99.90
2019-04-03T08:46:12.112Z,99.90
2019-04-03T08:48:41.759Z,99.90
2019-04-03T08:51:11.302Z,99.90
2019-04-03T08:53:41.155Z,99.90
2019-04-03T08:56:10.952Z,99.90
2019-04-03T08:58:40.584Z,99.90
2019-04-03T09:01:11.099Z,99.90
2019-04-03T09:03:40.860Z,99.90
2019-04-03T09:06:10.510Z,99.90
2019-04-03T09:08:40.168Z,99.90
2019-04-03T09:11:09.709Z,99.90
2019-04-03T09:13:39.543Z,99.90
2019-04-03T09:16:10.617Z,99.90
2019-04-03T09:18:40.927Z,99.90
2019-04-03T09:21:10.521Z,99.90
2019-04-03T09:23:40.075Z,99.90
2019-04-03T09:26:09.621Z,99.90
2019-04-03T09:28:41.141Z,99.90
2019-04-03T09:31:10.454Z,99.40
2019-04-03T09:33:40.587Z,99.60
2019-04-03T09:36:10.421Z,98.80
2019-04-03T09:38:41.472Z,98.70
2019-04-03T09:41:11.552Z,99.50
2019-04-03T09:43:41.090Z,97.80
2019-04-03T09:46:10.809Z,98.10
2019-04-03T09:48:40.465Z,98.20
2019-04-03T09:51:09.949Z,96.90
2019-04-03T09:53:39.499Z,96.30
2019-04-03T09:56:09.295Z,95.70
2019-04-03T09:58:38.984Z,94.80
2019-04-03T10:01:08.508Z,95.00
2019-04-03T10:03:38.174Z,93.40
2019-04-03T10:06:07.931Z,93.00
2019-04-03T10:08:39.743Z,91.80
2019-04-03T10:11:08.956Z,92.30
2019-04-03T10:13:38.425Z,91.10
2019-04-03T10:16:08.240Z,90.50
2019-04-03T10:18:40.855Z,90.00
2019-04-03T10:21:09.044Z,88.70
2019-04-03T10:23:38.677Z,88.10
2019-04-03T10:26:09.504Z,88.60
2019-04-03T10:28:42.113Z,87.90
2019-04-03T10:31:10.532Z,88.30
2019-04-03T10:33:40.047Z,87.90
2019-04-03T10:36:11.042Z,86.90
2019-04-03T10:38:42.306Z,86.20
2019-04-03T10:41:12.308Z,85.50
2019-04-03T10:43:42.139Z,81.20
2019-04-03T10:46:12.095Z,84.00
2019-04-03T10:48:41.765Z,83.10
2019-04-03T10:51:11.301Z,82.80
2019-04-03T10:53:40.916Z,81.60
2019-04-03T10:56:10.545Z,78.90
2019-04-03T10:58:42.206Z,80.40
2019-04-03T11:01:11.375Z,78.60
2019-04-03T11:03:41.078Z,79.20
2019-04-03T11:06:10.995Z,78.20
2019-04-03T11:08:53.547Z,78.20
2019-04-03T11:11:23.780Z,78.90
2019-04-03T11:13:53.501Z,76.40
2019-04-03T11:16:24.379Z,79.70
2019-04-03T11:18:59.927Z,76.50
2019-04-03T11:21:25.419Z,76.60
2019-04-03T11:23:55.221Z,73.00
2019-04-03T11:26:25.488Z,76.50
2019-04-03T11:28:55.629Z,72.30
2019-04-03T11:31:28.386Z,73.10
2019-04-03T11:33:57.174Z,71.30
2019-04-03T11:36:30.630Z,70.70
2019-04-03T11:39:12.451Z,71.60
2019-04-03T11:41:34.465Z,71.50
2019-04-03T11:44:04.328Z,72.20
2019-04-03T11:46:34.225Z,72.20
2019-04-03T11:49:03.927Z,73.70
2019-04-03T11:51:34.475Z,74.30
2019-04-03T11:54:06.870Z,74.60
2019-04-03T11:56:35.863Z,75.40
2019-04-03T11:59:05.665Z,74.20
2019-04-03T12:01:35.305Z,75.80
2019-04-03T12:04:05.109Z,76.30
2019-04-03T12:06:34.743Z,75.80
2019-04-03T12:09:07.088Z,74.80
2019-04-03T12:11:38.375Z,75.10
2019-04-03T12:14:08.474Z,75.00
2019-04-03T12:16:39.278Z,75.60
2019-04-03T12:19:09.165Z,75.40
2019-04-03T12:21:39.207Z,74.30
2019-04-03T12:24:08.737Z,73.60
2019-04-03T12:26:38.719Z,73.60
2019-04-03T12:29:08.416Z,73.40
2019-04-03T12:31:38.005Z,74.10
2019-04-03T12:34:07.602Z,74.10
2019-04-03T12:36:37.583Z,74.20
2019-04-03T12:39:30.927Z,73.60
2019-04-03T12:42:00.484Z,73.70
2019-04-03T12:44:29.977Z,74.80
2019-04-03T12:46:59.564Z,74.80
2019-04-03T12:49:29.021Z,74.10
2019-04-03T12:51:58.924Z,74.10
2019-04-03T12:54:28.404Z,74.20
2019-04-03T12:57:00.252Z,74.10
2019-04-03T12:59:29.379Z,73.70
2019-04-03T13:01:59.356Z,73.60
2019-04-03T13:04:31.169Z,73.80
2019-04-03T13:07:00.148Z,73.50
2019-04-03T13:09:29.775Z,74.00
2019-04-03T13:11:59.403Z,75.60
2019-04-03T13:14:31.466Z,75.30
2019-04-03T13:17:00.018Z,74.10
2019-04-03T13:19:29.519Z,74.10
2019-04-03T13:21:59.350Z,75.70
2019-04-03T13:24:29.342Z,76.40
2019-04-03T13:26:59.603Z,75.30
2019-04-03T13:29:29.680Z,74.80
2019-04-03T13:31:59.154Z,75.70
2019-04-03T13:34:31.106Z,76.70
2019-04-03T13:36:59.759Z,75.70
2019-04-03T13:39:30.939Z,76.80
2019-04-03T13:42:00.596Z,77.10
2019-04-03T13:44:30.141Z,77.50
2019-04-03T13:46:59.624Z,78.30
2019-04-03T13:49:30.746Z,77.60
2019-04-03T13:52:05.363Z,77.70
2019-04-03T13:54:31.686Z,77.20
2019-04-03T13:57:01.290Z,77.20
2019-04-03T13:59:31.773Z,78.00
2019-04-03T14:02:01.428Z,78.00
2019-04-03T14:04:31.264Z,77.20
2019-04-03T14:07:03.251Z,76.80
2019-04-03T14:09:32.180Z,76.30
2019-04-03T14:12:04.882Z,76.20
2019-04-03T14:14:33.041Z,76.40
2019-04-03T14:17:05.483Z,76.20
2019-04-03T14:19:43.300Z,77.30
2019-04-03T14:22:05.257Z,76.20
2019-04-03T14:24:41.322Z,76.40
2019-04-03T14:27:18.870Z,76.50
2019-04-03T14:29:39.248Z,76.30
2019-04-03T14:32:09.168Z,76.10
2019-04-03T14:34:40.223Z,76.20
2019-04-03T14:37:10.811Z,75.50
2019-04-03T14:39:41.482Z,76.00
2019-04-03T14:42:11.611Z,76.00
2019-04-03T14:44:42.276Z,75.30
2019-04-03T14:47:12.498Z,75.70
2019-04-03T14:49:42.006Z,75.60
2019-04-03T14:52:11.763Z,76.10
2019-04-03T14:54:41.475Z,76.00
2019-04-03T14:57:19.813Z,76.60
2019-04-03T14:59:42.242Z,76.20
2019-04-03T15:02:11.756Z,76.50
2019-04-03T15:04:41.398Z,74.80
2019-04-03T15:07:11.031Z,75.40
2019-04-03T15:09:40.877Z,75.50
2019-04-03T15:12:12.205Z,75.40
2019-04-03T15:14:41.736Z,76.40
2019-04-03T15:17:11.548Z,76.60
2019-04-03T15:19:41.337Z,75.50
2019-04-03T15:22:11.141Z,75.00
2019-04-03T15:24:43.385Z,75.10
2019-04-03T15:27:12.246Z,75.00
2019-04-03T15:29:41.982Z,75.00
2019-04-03T15:32:11.589Z,74.30
2019-04-03T15:34:41.425Z,74.80
2019-04-03T15:37:13.948Z,74.50
2019-04-03T15:39:42.495Z,73.20
2019-04-03T15:42:12.253Z,73.10
2019-04-03T15:44:42.085Z,73.20
2019-04-03T15:47:11.653Z,72.60
2019-04-03T15:49:41.213Z,72.20
2019-04-03T15:52:11.958Z,72.70
2019-04-03T15:54:41.884Z,73.10
2019-04-03T15:57:11.519Z,72.80
2019-04-03T15:59:41.039Z,72.90
2019-04-03T16:02:12.456Z,72.60
2019-04-03T16:04:41.970Z,72.30
2019-04-03T16:07:11.382Z,73.20
2019-04-03T16:09:40.807Z,72.80
2019-04-03T16:12:10.414Z,72.30
2019-04-03T16:14:39.934Z,71.90
2019-04-03T16:17:09.745Z,72.30
2019-04-03T16:19:40.844Z,72.10
2019-04-03T16:22:11.591Z,71.60
2019-04-03T16:24:43.381Z,71.30
2019-04-03T16:27:12.845Z,71.10
2019-04-03T16:29:42.593Z,71.70
2019-04-03T16:32:12.729Z,71.70
2019-04-03T16:34:42.699Z,71.20
2019-04-03T16:37:12.871Z,70.70
2019-04-03T16:39:42.352Z,70.40
2019-04-03T16:42:11.969Z,70.50
2019-04-03T16:44:41.611Z,71.90
2019-04-03T16:47:12.929Z,70.80
2019-04-03T16:49:42.354Z,71.00
2019-04-03T16:52:11.837Z,71.60
2019-04-03T16:54:47.414Z,71.30
2019-04-03T16:57:17.432Z,70.20
2019-04-03T16:59:48.526Z,70.60
2019-04-03T17:02:19.149Z,70.40
2019-04-03T17:04:49.503Z,70.70
2019-04-03T17:07:20.558Z,69.70
2019-04-03T17:09:50.223Z,70.80
2019-04-03T17:12:39.110Z,70.10
2019-04-03T17:15:09.782Z,70.10
2019-04-03T17:17:39.995Z,69.80
2019-04-03T17:20:10.953Z,70.20
2019-04-03T17:22:41.346Z,69.60
2019-04-03T17:25:11.812Z,70.30
2019-04-03T17:27:41.548Z,70.00
2019-04-03T17:30:13.499Z,70.30
2019-04-03T17:32:43.460Z,69.90
2019-04-03T17:35:14.579Z,70.30
2019-04-03T17:37:44.779Z,70.80
2019-04-03T17:40:14.486Z,70.00
2019-04-03T17:42:44.062Z,71.30
2019-04-03T17:45:15.577Z,71.20
2019-04-03T17:47:45.011Z,71.70
2019-04-03T17:50:14.990Z,70.20
2019-04-03T17:52:44.969Z,70.30
2019-04-03T17:55:14.722Z,70.50
2019-04-03T17:57:45.596Z,70.90
2019-04-03T18:00:20.490Z,71.10
2019-04-03T18:02:49.069Z,70.60
2019-04-03T18:05:18.732Z,70.70
2019-04-03T18:07:48.406Z,71.40
2019-04-03T18:10:18.410Z,71.60
2019-04-03T18:12:48.014Z,71.30
2019-04-03T18:15:18.277Z,71.70
2019-04-03T18:17:47.934Z,71.80
2019-04-03T18:20:17.952Z,71.60
2019-04-03T18:22:50.344Z,71.70
2019-04-03T18:25:18.754Z,72.50
2019-04-03T18:27:48.501Z,72.00
2019-04-03T18:30:18.995Z,72.30
2019-04-03T18:32:48.566Z,72.10
2019-04-03T18:35:18.074Z,71.80
2019-04-03T18:37:47.613Z,71.70
2019-04-03T18:40:17.284Z,71.50
2019-04-03T18:42:49.367Z,71.80
2019-04-03T18:45:24.944Z,72.20
2019-04-03T18:47:55.246Z,72.00
2019-04-03T18:50:25.019Z,72.70
2019-04-03T18:52:55.005Z,73.20
2019-04-03T18:55:24.876Z,73.20
2019-04-03T18:57:54.345Z,73.60
2019-04-03T19:00:24.085Z,74.20
2019-04-03T19:02:53.793Z,75.90
2019-04-03T19:05:23.479Z,74.20
2019-04-03T19:07:55.566Z,75.40
2019-04-03T19:10:24.654Z,75.50
2019-04-03T19:12:55.008Z,75.00
2019-04-03T19:15:24.711Z,75.70
2019-04-03T19:17:59.898Z,75.50
2019-04-03T19:20:25.439Z,76.10
2019-04-03T19:23:02.366Z,75.70
2019-04-03T19:25:29.403Z,76.40
2019-04-03T19:27:58.122Z,75.80
2019-04-03T19:30:28.704Z,76.70
2019-04-03T19:32:58.473Z,77.60
2019-04-03T19:35:28.588Z,78.00
2019-04-03T19:37:58.396Z,76.80
2019-04-03T19:40:27.979Z,78.30
2019-04-03T19:42:57.518Z,77.20
2019-04-03T19:45:27.164Z,76.90
2019-04-03T19:47:56.673Z,78.00
2019-04-03T19:50:26.322Z,77.50
2019-04-03T19:52:55.939Z,77.60
2019-04-03T19:55:25.527Z,79.00
2019-04-03T19:57:57.462Z,78.00
2019-04-03T20:00:26.479Z,78.20
2019-04-03T20:02:56.055Z,78.30
2019-04-03T20:05:25.660Z,78.50
2019-04-03T20:07:55.231Z,78.70
2019-04-03T20:10:25.207Z,80.30
2019-04-03T20:12:54.749Z,78.80
2019-04-03T20:15:24.286Z,78.60
2019-04-03T20:17:54.986Z,78.70
2019-04-03T20:20:25.362Z,78.50
2019-04-03T20:22:54.924Z,79.20
2019-04-03T20:25:24.511Z,78.90
2019-04-03T20:27:56.746Z,78.70
2019-04-03T20:30:25.232Z,79.60
2019-04-03T20:32:54.704Z,79.40
2019-04-03T20:35:24.209Z,79.40
2019-04-03T20:37:56.767Z,79.00
2019-04-03T20:40:25.065Z,79.90
2019-04-03T20:42:54.698Z,79.80
2019-04-03T20:45:24.392Z,80.00
2019-04-03T20:47:53.909Z,80.00
2019-04-03T20:50:23.435Z,80.20
2019-04-03T20:52:52.937Z,80.30
2019-04-03T20:55:24.655Z,81.60
2019-04-03T20:57:55.862Z,81.20
2019-04-03T21:00:25.058Z,81.60
2019-04-03T21:02:54.585Z,82.60
2019-04-03T21:05:24.171Z,82.00
2019-04-03T21:07:55.606Z,82.30
2019-04-03T21:10:24.891Z,82.40
2019-04-03T21:12:54.501Z,82.80
2019-04-03T21:15:23.992Z,83.10
2019-04-03T21:17:53.517Z,84.00
2019-04-03T21:20:23.758Z,83.10
2019-04-03T21:22:53.777Z,84.20
2019-04-03T21:25:23.284Z,83.50
2019-04-03T21:27:52.769Z,83.50
2019-04-03T21:30:24.050Z,84.00
2019-04-03T21:32:53.642Z,83.60
2019-04-03T21:35:23.233Z,83.80
2019-04-03T21:37:52.797Z,84.60
2019-04-03T21:40:22.404Z,85.30
2019-04-03T21:42:51.892Z,84.70
2019-04-03T21:45:21.395Z,84.70
2019-04-03T21:47:50.923Z,85.50
2019-04-03T21:50:20.509Z,85.00
2019-04-03T21:52:50.041Z,85.10
2019-04-03T21:55:19.729Z,85.10
2019-04-03T21:57:49.436Z,85.00
2019-04-03T22:00:36.520Z,85.20
2019-04-03T22:03:06.922Z,86.80
2019-04-03T22:05:36.631Z,85.80
2019-04-03T22:08:06.317Z,85.80
2019-04-03T22:10:35.887Z,86.00
2019-04-03T22:13:07.712Z,86.20
2019-04-03T22:15:36.807Z,86.20
2019-04-03T22:18:06.471Z,86.40
2019-04-03T22:20:36.240Z,85.80
2019-04-03T22:23:05.860Z,85.40
2019-04-03T22:25:36.138Z,86.00
2019-04-03T22:28:05.768Z,86.20
2019-04-03T22:30:35.323Z,86.00
2019-04-03T22:33:04.791Z,86.70
2019-04-03T22:35:34.557Z,86.70
2019-04-03T22:38:16.243Z,85.50
2019-04-03T22:40:45.724Z,85.90
2019-04-03T22:43:15.496Z,84.80
2019-04-03T22:45:45.689Z,86.00
2019-04-03T22:48:15.547Z,85.60
2019-04-03T22:50:45.102Z,86.00
2019-04-03T22:53:14.525Z,86.50
2019-04-03T22:55:44.614Z,85.90
2019-04-03T22:58:15.097Z,85.60
2019-04-03T23:00:44.711Z,86.00
2019-04-03T23:03:14.171Z,86.40
2019-04-03T23:05:43.608Z,85.10
2019-04-03T23:08:13.065Z,85.40
2019-04-03T23:10:42.515Z,85.40
2019-04-03T23:13:12.039Z,85.30
2019-04-03T23:15:41.462Z,84.60
2019-04-03T23:18:11.031Z,84.10
2019-04-03T23:20:40.468Z,84.50
2019-04-03T23:23:09.844Z,83.60
2019-04-03T23:25:40.198Z,84.70
2019-04-03T23:28:09.668Z,83.40
2019-04-03T23:30:40.900Z,83.30
2019-04-03T23:33:10.250Z,83.10
2019-04-03T23:35:39.666Z,83.60
2019-04-03T23:38:09.226Z,83.80
2019-04-03T23:40:38.814Z,83.80
2019-04-03T23:43:08.951Z,84.10
2019-04-03T23:45:39.148Z,84.00
2019-04-03T23:48:08.658Z,84.80
2019-04-03T23:50:38.217Z,83.60
2019-04-03T23:53:07.668Z,84.10
2019-04-03T23:55:37.247Z,83.20
2019-04-03T23:58:06.769Z,83.50
